Columbia — WYR2092 — position and weather

sailwx.info

Track history (hours):
 
Tides and Currents Weather Stations Pressure Air Temp Water Temp Dewpoint Dewpoint Depression Visibility Wind Speed Wind Dir Waves Ship Positions

Columbia

More information available from US FCC via Universal Licensing System and Coast Guard Vessel Documentation Center.

Last reported at 2014-Jul-20 10:33 UTC. Time now 2014-Jul-24 03:58 UTC.
Position N 54°38' W 130°44'.

Type: Ship. MMSI: 367144000.

Date/timePositionNaut miles runAvg speedWind from/ knotsBaromVisibWave heightAir tempDewpointWater temp
2014-Jul-20 10:33N 54°38' W 130°44'1514.9
2014-Jul-20 09:33N 54°23' W 130°36'16014.5
2014-Jul-19 22:31N 52°10' W 128°08'1210.7
2014-Jul-19 21:25N 52°01' W 127°56'3217.5
2014-Jul-19 19:34N 51°29' W 127°51'1414.1
2014-Jul-19 18:33N 51°15' W 127°53'1515.4
2014-Jul-19 17:34N 51°02' W 127°38'1716.6
2014-Jul-19 16:33N 50°52' W 127°17'1817.0
2014-Jul-19 15:31N 50°42' W 126°54'6515.5
2014-Jul-19 11:21N 50°14' W 125°23'1516.8
2014-Jul-19 10:27N 50°00' W 125°13'1415.7
2014-Jul-19 09:33N 49°50' W 124°57'1515.4
2014-Jul-19 08:33N 49°39' W 124°40'1515.3
2014-Jul-19 07:34N 49°29' W 124°24'1514.8
2014-Jul-19 06:33N 49°23' W 124°03'1414.5
2014-Jul-19 05:34N 49°17' W 123°42'1515.2
2014-Jul-19 04:34N 49°07' W 123°25'1514.8
2014-Jul-19 03:33N 48°57' W 123°09'1717.0
2014-Jul-19 02:33N 48°46' W 122°49'1111.4
2014-Jul-19 01:33N 48°42' W 122°33'2 2.3
2014-Jul-19 00:33N 48°43' W 122°31'0 0.0
2014-Jul-18 23:18N 48°43' W 122°31'0 0.0
2014-Jul-18 22:30N 48°43' W 122°31'0 0.0
2014-Jul-18 21:24N 48°43' W 122°31'0 0.0
2014-Jul-18 20:30N 48°43' W 122°31'0 0.0
2014-Jul-18 19:12N 48°43' W 122°31'0 0.0
2014-Jul-18 18:12N 48°43' W 122°31'0 0.0
2014-Jul-18 17:30N 48°43' W 122°31'0 0.0
2014-Jul-18 16:06N 48°43' W 122°31'0 0.0
2014-Jul-18 15:30N 48°43' W 122°31'0 0.1
2014-Jul-18 14:33N 48°43' W 122°31'9 9.1
2014-Jul-18 13:34N 48°42' W 122°44'1413.6
2014-Jul-18 12:33N 48°50' W 123°00'1212.1
2014-Jul-18 11:33N 48°58' W 123°15'1212.3
2014-Jul-18 10:34N 49°06' W 123°28'1212.0
2014-Jul-18 09:33N 49°15' W 123°40'1312.8
2014-Jul-18 08:33N 49°22' W 123°57'1413.6
2014-Jul-18 07:33N 49°26' W 124°17'1414.1
2014-Jul-18 06:33N 49°35' W 124°34'1413.6
2014-Jul-18 05:33N 49°45' W 124°48'1413.6
2014-Jul-18 04:33N 49°54' W 125°04'1312.6
2014-Jul-18 03:33N 50°04' W 125°15'4117.3
2014-Jul-18 01:10N 50°28' W 126°08'1219.1
2014-Jul-18 00:32N 50°30' W 126°27'2017.7
2014-Jul-17 23:25N 50°41' W 126°53'1618.7
2014-Jul-17 22:33N 50°50' W 127°13'7414.8
2014-Jul-17 17:33N 51°59' W 127°56'1211.7
2014-Jul-17 16:30N 52°09' W 128°08'8 8.2
2014-Jul-17 15:32N 52°15' W 128°17'13815.2
2014-Jul-17 06:26N 54°10' W 130°26'1516.9
2014-Jul-17 05:33N 54°23' W 130°37'  
2014-Jul-13 10:33N 54°34' W 130°40'1413.9
2014-Jul-13 09:33N 54°21' W 130°36'14714.4
2014-Jul-12 23:18N 52°16' W 128°24'1215.9
2014-Jul-12 22:33N 52°11' W 128°06'8 7.6
2014-Jul-12 21:33N 52°05' W 128°01'3014.8
2014-Jul-12 19:30N 51°35' W 127°53'1515.5
2014-Jul-12 18:33N 51°20' W 127°51'1514.7
2014-Jul-12 17:33N 51°06' W 127°44'1616.0
2014-Jul-12 16:34N 50°55' W 127°25'1716.5
2014-Jul-12 15:33N 50°47' W 127°03'1716.7
2014-Jul-12 14:34N 50°36' W 126°43'5416.4
2014-Jul-12 11:15N 50°16' W 125°24'1014.7
2014-Jul-12 10:32N 50°06' W 125°18'1313.3
2014-Jul-12 09:33N 49°56' W 125°06'1817.4
2014-Jul-12 08:33N 49°43' W 124°46'1717.0
2014-Jul-12 07:33N 49°31' W 124°28'1616.1
2014-Jul-12 06:33N 49°24' W 124°06'1716.7
2014-Jul-12 05:33N 49°17' W 123°42'1716.6
2014-Jul-12 04:34N 49°06' W 123°24'1615.8
2014-Jul-12 03:33N 48°55' W 123°06'1717.1
2014-Jul-12 02:33N 48°45' W 122°46'9 9.0
2014-Jul-12 01:33N 48°43' W 122°33'1 1.4
2014-Jul-12 00:31N 48°43' W 122°31'0 0.0
2014-Jul-11 23:31N 48°43' W 122°31'0 0.0
2014-Jul-11 22:31N 48°43' W 122°31'0 0.0
2014-Jul-11 21:25N 48°43' W 122°31'0 0.0
2014-Jul-11 20:31N 48°43' W 122°31'0 0.0
2014-Jul-11 19:31N 48°43' W 122°31'0 0.0
2014-Jul-11 18:31N 48°43' W 122°31'0 0.0
2014-Jul-11 17:31N 48°43' W 122°31'0 0.0
2014-Jul-11 16:31N 48°43' W 122°31'0 0.0
2014-Jul-11 15:31N 48°43' W 122°31'1 0.6
2014-Jul-11 14:33N 48°43' W 122°32'8 8.4
2014-Jul-11 13:33N 48°41' W 122°44'1515.4
2014-Jul-11 12:34N 48°51' W 123°01'1515.0
2014-Jul-11 11:33N 49°01' W 123°19'1616.5
2014-Jul-11 10:34N 49°13' W 123°36'1616.4
2014-Jul-11 09:33N 49°22' W 123°57'1616.1
2014-Jul-11 08:34N 49°26' W 124°21'1616.0
2014-Jul-11 07:33N 49°38' W 124°38'1616.2
2014-Jul-11 06:33N 49°49' W 124°56'1514.7
2014-Jul-11 05:33N 49°60' W 125°12'1211.6
2014-Jul-11 04:28N 50°10' W 125°22'4113.4
2014-Jul-11 01:26N 50°29' W 126°18'1515.3
2014-Jul-11 00:27N 50°32' W 126°41'1415.0
2014-Jul-10 23:31N 50°43' W 126°56'1616.2
2014-Jul-10 22:33N 50°52' W 127°16'1515.6
2014-Jul-10 21:33N 51°01' W 127°36'1615.5
2014-Jul-10 20:33N 51°12' W 127°53'1515.3
2014-Jul-10 19:33N 51°27' W 127°50'3316.3
2014-Jul-10 17:33N 51°60' W 127°56'1212.2
2014-Jul-10 16:33N 52°09' W 128°08'10 9.8
2014-Jul-10 15:32N 52°15' W 128°21'  
Track history (hours):
 
Tides and Currents Weather Stations Pressure Air Temp Water Temp Dewpoint Dewpoint Depression Visibility Wind Speed Wind Dir Waves Ship Positions

Columbia

More information available from US FCC via Universal Licensing System and Coast Guard Vessel Documentation Center.

Last reported at 2014-Jul-20 10:33 UTC. Time now 2014-Jul-24 03:58 UTC.
Position N 54°38' W 130°44'.

Type: Ship. MMSI: 367144000.

Date/timePositionNaut miles runAvg speedWind from/ knotsBaromVisibWave heightAir tempDewpointWater temp
2014-Jul-20 10:33N 54°38' W 130°44'1514.9
2014-Jul-20 09:33N 54°23' W 130°36'16014.5
2014-Jul-19 22:31N 52°10' W 128°08'1210.7
2014-Jul-19 21:25N 52°01' W 127°56'3217.5
2014-Jul-19 19:34N 51°29' W 127°51'1414.1
2014-Jul-19 18:33N 51°15' W 127°53'1515.4
2014-Jul-19 17:34N 51°02' W 127°38'1716.6
2014-Jul-19 16:33N 50°52' W 127°17'1817.0
2014-Jul-19 15:31N 50°42' W 126°54'6515.5
2014-Jul-19 11:21N 50°14' W 125°23'1516.8
2014-Jul-19 10:27N 50°00' W 125°13'1415.7
2014-Jul-19 09:33N 49°50' W 124°57'1515.4
2014-Jul-19 08:33N 49°39' W 124°40'1515.3
2014-Jul-19 07:34N 49°29' W 124°24'1514.8
2014-Jul-19 06:33N 49°23' W 124°03'1414.5
2014-Jul-19 05:34N 49°17' W 123°42'1515.2
2014-Jul-19 04:34N 49°07' W 123°25'1514.8
2014-Jul-19 03:33N 48°57' W 123°09'1717.0
2014-Jul-19 02:33N 48°46' W 122°49'1111.4
2014-Jul-19 01:33N 48°42' W 122°33'2 2.3
2014-Jul-19 00:33N 48°43' W 122°31'0 0.0
2014-Jul-18 23:18N 48°43' W 122°31'0 0.0
2014-Jul-18 22:30N 48°43' W 122°31'0 0.0
2014-Jul-18 21:24N 48°43' W 122°31'0 0.0
2014-Jul-18 20:30N 48°43' W 122°31'0 0.0
2014-Jul-18 19:12N 48°43' W 122°31'0 0.0
2014-Jul-18 18:12N 48°43' W 122°31'0 0.0
2014-Jul-18 17:30N 48°43' W 122°31'0 0.0
2014-Jul-18 16:06N 48°43' W 122°31'0 0.0
2014-Jul-18 15:30N 48°43' W 122°31'0 0.1
2014-Jul-18 14:33N 48°43' W 122°31'9 9.1
2014-Jul-18 13:34N 48°42' W 122°44'1413.6
2014-Jul-18 12:33N 48°50' W 123°00'1212.1
2014-Jul-18 11:33N 48°58' W 123°15'1212.3
2014-Jul-18 10:34N 49°06' W 123°28'1212.0
2014-Jul-18 09:33N 49°15' W 123°40'1312.8
2014-Jul-18 08:33N 49°22' W 123°57'1413.6
2014-Jul-18 07:33N 49°26' W 124°17'1414.1
2014-Jul-18 06:33N 49°35' W 124°34'1413.6
2014-Jul-18 05:33N 49°45' W 124°48'1413.6
2014-Jul-18 04:33N 49°54' W 125°04'1312.6
2014-Jul-18 03:33N 50°04' W 125°15'4117.3
2014-Jul-18 01:10N 50°28' W 126°08'1219.1
2014-Jul-18 00:32N 50°30' W 126°27'2017.7
2014-Jul-17 23:25N 50°41' W 126°53'1618.7
2014-Jul-17 22:33N 50°50' W 127°13'7414.8
2014-Jul-17 17:33N 51°59' W 127°56'1211.7
2014-Jul-17 16:30N 52°09' W 128°08'8 8.2
2014-Jul-17 15:32N 52°15' W 128°17'13815.2
2014-Jul-17 06:26N 54°10' W 130°26'1516.9
2014-Jul-17 05:33N 54°23' W 130°37'  
2014-Jul-13 10:33N 54°34' W 130°40'1413.9
2014-Jul-13 09:33N 54°21' W 130°36'14714.4
2014-Jul-12 23:18N 52°16' W 128°24'1215.9
2014-Jul-12 22:33N 52°11' W 128°06'8 7.6
2014-Jul-12 21:33N 52°05' W 128°01'3014.8
2014-Jul-12 19:30N 51°35' W 127°53'1515.5
2014-Jul-12 18:33N 51°20' W 127°51'1514.7
2014-Jul-12 17:33N 51°06' W 127°44'1616.0
2014-Jul-12 16:34N 50°55' W 127°25'1716.5
2014-Jul-12 15:33N 50°47' W 127°03'1716.7
2014-Jul-12 14:34N 50°36' W 126°43'5416.4
2014-Jul-12 11:15N 50°16' W 125°24'1014.7
2014-Jul-12 10:32N 50°06' W 125°18'1313.3
2014-Jul-12 09:33N 49°56' W 125°06'1817.4
2014-Jul-12 08:33N 49°43' W 124°46'1717.0
2014-Jul-12 07:33N 49°31' W 124°28'1616.1
2014-Jul-12 06:33N 49°24' W 124°06'1716.7
2014-Jul-12 05:33N 49°17' W 123°42'1716.6
2014-Jul-12 04:34N 49°06' W 123°24'1615.8
2014-Jul-12 03:33N 48°55' W 123°06'1717.1
2014-Jul-12 02:33N 48°45' W 122°46'9 9.0
2014-Jul-12 01:33N 48°43' W 122°33'1 1.4
2014-Jul-12 00:31N 48°43' W 122°31'0 0.0
2014-Jul-11 23:31N 48°43' W 122°31'0 0.0
2014-Jul-11 22:31N 48°43' W 122°31'0 0.0
2014-Jul-11 21:25N 48°43' W 122°31'0 0.0
2014-Jul-11 20:31N 48°43' W 122°31'0 0.0
2014-Jul-11 19:31N 48°43' W 122°31'0 0.0
2014-Jul-11 18:31N 48°43' W 122°31'0 0.0
2014-Jul-11 17:31N 48°43' W 122°31'0 0.0
2014-Jul-11 16:31N 48°43' W 122°31'0 0.0
2014-Jul-11 15:31N 48°43' W 122°31'1 0.6
2014-Jul-11 14:33N 48°43' W 122°32'8 8.4
2014-Jul-11 13:33N 48°41' W 122°44'1515.4
2014-Jul-11 12:34N 48°51' W 123°01'1515.0
2014-Jul-11 11:33N 49°01' W 123°19'1616.5
2014-Jul-11 10:34N 49°13' W 123°36'1616.4
2014-Jul-11 09:33N 49°22' W 123°57'1616.1
2014-Jul-11 08:34N 49°26' W 124°21'1616.0
2014-Jul-11 07:33N 49°38' W 124°38'1616.2
2014-Jul-11 06:33N 49°49' W 124°56'1514.7
2014-Jul-11 05:33N 49°60' W 125°12'1211.6
2014-Jul-11 04:28N 50°10' W 125°22'4113.4
2014-Jul-11 01:26N 50°29' W 126°18'1515.3
2014-Jul-11 00:27N 50°32' W 126°41'1415.0
2014-Jul-10 23:31N 50°43' W 126°56'1616.2
2014-Jul-10 22:33N 50°52' W 127°16'1515.6
2014-Jul-10 21:33N 51°01' W 127°36'1615.5
2014-Jul-10 20:33N 51°12' W 127°53'1515.3
2014-Jul-10 19:33N 51°27' W 127°50'3316.3
2014-Jul-10 17:33N 51°60' W 127°56'1212.2
2014-Jul-10 16:33N 52°09' W 128°08'10 9.8
2014-Jul-10 15:32N 52°15' W 128°21'  

Dump ship's entire track history